sensor_id;sensor_type;location;lat;lon;timestamp;temperature;humidity
29663;DHT22;16578;53.266;7.920;2023-04-25T00:01:15;10.60;75.00
29663;DHT22;16578;53.266;7.920;2023-04-25T00:03:40;10.60;75.10
29663;DHT22;16578;53.266;7.920;2023-04-25T00:06:06;10.60;75.10
29663;DHT22;16578;53.266;7.920;2023-04-25T00:08:32;10.60;74.80
29663;DHT22;16578;53.266;7.920;2023-04-25T00:10:58;10.60;74.50
29663;DHT22;16578;53.266;7.920;2023-04-25T00:13:25;10.60;74.50
29663;DHT22;16578;53.266;7.920;2023-04-25T00:15:51;10.60;74.40
29663;DHT22;16578;53.266;7.920;2023-04-25T00:18:18;10.60;74.50
29663;DHT22;16578;53.266;7.920;2023-04-25T00:20:44;10.60;74.40
29663;DHT22;16578;53.266;7.920;2023-04-25T00:23:15;10.60;74.30
29663;DHT22;16578;53.266;7.920;2023-04-25T00:25:47;10.60;74.00
29663;DHT22;16578;53.266;7.920;2023-04-25T00:28:13;10.60;74.90
29663;DHT22;16578;53.266;7.920;2023-04-25T00:30:39;10.60;74.00
29663;DHT22;16578;53.266;7.920;2023-04-25T00:33:06;10.60;74.00
29663;DHT22;16578;53.266;7.920;2023-04-25T00:35:31;10.60;74.00
29663;DHT22;16578;53.266;7.920;2023-04-25T00:37:57;10.50;74.00
29663;DHT22;16578;53.266;7.920;2023-04-25T00:40:23;10.50;74.20
29663;DHT22;16578;53.266;7.920;2023-04-25T00:42:49;10.50;74.20
29663;DHT22;16578;53.266;7.920;2023-04-25T00:45:17;10.50;73.80
29663;DHT22;16578;53.266;7.920;2023-04-25T00:47:43;10.50;73.70
29663;DHT22;16578;53.266;7.920;2023-04-25T00:50:09;10.50;73.60
29663;DHT22;16578;53.266;7.920;2023-04-25T00:52:43;10.50;73.50
29663;DHT22;16578;53.266;7.920;2023-04-25T00:55:10;10.50;73.50
29663;DHT22;16578;53.266;7.920;2023-04-25T00:57:36;10.50;73.30
29663;DHT22;16578;53.266;7.920;2023-04-25T01:00:03;10.40;73.10
29663;DHT22;16578;53.266;7.920;2023-04-25T01:02:30;10.40;73.00
29663;DHT22;16578;53.266;7.920;2023-04-25T01:04:57;10.40;72.90
29663;DHT22;16578;53.266;7.920;2023-04-25T01:07:23;10.40;73.20
29663;DHT22;16578;53.266;7.920;2023-04-25T01:09:48;10.40;73.10
29663;DHT22;16578;53.266;7.920;2023-04-25T01:12:16;10.40;72.90
29663;DHT22;16578;53.266;7.920;2023-04-25T01:14:42;10.30;72.90
29663;DHT22;16578;53.266;7.920;2023-04-25T01:17:08;10.30;72.90
29663;DHT22;16578;53.266;7.920;2023-04-25T01:19:34;10.30;73.00
29663;DHT22;16578;53.266;7.920;2023-04-25T01:22:01;10.30;72.80
29663;DHT22;16578;53.266;7.920;2023-04-25T01:24:27;10.30;72.80
29663;DHT22;16578;53.266;7.920;2023-04-25T01:26:54;10.20;72.70
29663;DHT22;16578;53.266;7.920;2023-04-25T01:29:21;10.20;72.80
29663;DHT22;16578;53.266;7.920;2023-04-25T01:31:47;10.10;73.00
29663;DHT22;16578;53.266;7.920;2023-04-25T01:34:13;10.10;73.10
29663;DHT22;16578;53.266;7.920;2023-04-25T01:36:39;10.10;73.10
29663;DHT22;16578;53.266;7.920;2023-04-25T01:39:05;10.10;73.20
29663;DHT22;16578;53.266;7.920;2023-04-25T01:41:31;10.10;73.50
29663;DHT22;16578;53.266;7.920;2023-04-25T01:43:57;10.10;73.50
29663;DHT22;16578;53.266;7.920;2023-04-25T01:46:23;10.00;73.60
29663;DHT22;16578;53.266;7.920;2023-04-25T01:48:49;10.00;73.90
29663;DHT22;16578;53.266;7.920;2023-04-25T01:51:15;10.00;73.90
29663;DHT22;16578;53.266;7.920;2023-04-25T01:53:41;10.00;74.00
29663;DHT22;16578;53.266;7.920;2023-04-25T01:56:07;10.00;74.10
29663;DHT22;16578;53.266;7.920;2023-04-25T01:58:33;10.00;74.10
29663;DHT22;16578;53.266;7.920;2023-04-25T02:00:59;10.00;73.80
29663;DHT22;16578;53.266;7.920;2023-04-25T02:03:24;9.90;73.50
29663;DHT22;16578;53.266;7.920;2023-04-25T02:05:50;10.00;73.50
29663;DHT22;16578;53.266;7.920;2023-04-25T02:08:16;9.90;73.40
29663;DHT22;16578;53.266;7.920;2023-04-25T02:10:42;10.00;73.40
29663;DHT22;16578;53.266;7.920;2023-04-25T02:13:08;10.00;73.50
29663;DHT22;16578;53.266;7.920;2023-04-25T02:15:33;10.00;73.50
29663;DHT22;16578;53.266;7.920;2023-04-25T02:17:59;10.00;73.30
29663;DHT22;16578;53.266;7.920;2023-04-25T02:20:26;10.00;73.10
29663;DHT22;16578;53.266;7.920;2023-04-25T02:22:52;10.00;73.00
29663;DHT22;16578;53.266;7.920;2023-04-25T02:25:18;10.00;72.60
29663;DHT22;16578;53.266;7.920;2023-04-25T02:27:45;10.00;72.50
29663;DHT22;16578;53.266;7.920;2023-04-25T02:30:11;9.90;72.10
29663;DHT22;16578;53.266;7.920;2023-04-25T02:32:38;9.90;71.90
29663;DHT22;16578;53.266;7.920;2023-04-25T02:35:04;9.90;71.70
29663;DHT22;16578;53.266;7.920;2023-04-25T02:37:31;9.90;71.60
29663;DHT22;16578;53.266;7.920;2023-04-25T02:39:57;9.80;71.60
29663;DHT22;16578;53.266;7.920;2023-04-25T02:42:23;9.80;71.60
29663;DHT22;16578;53.266;7.920;2023-04-25T02:44:48;9.80;71.30
29663;DHT22;16578;53.266;7.920;2023-04-25T02:47:14;9.70;71.10
29663;DHT22;16578;53.266;7.920;2023-04-25T02:49:39;9.70;70.90
29663;DHT22;16578;53.266;7.920;2023-04-25T02:52:05;9.70;70.90
29663;DHT22;16578;53.266;7.920;2023-04-25T02:54:31;9.70;70.90
29663;DHT22;16578;53.266;7.920;2023-04-25T02:56:56;9.70;70.90
29663;DHT22;16578;53.266;7.920;2023-04-25T02:59:22;9.60;70.60
29663;DHT22;16578;53.266;7.920;2023-04-25T03:01:47;9.60;70.50
29663;DHT22;16578;53.266;7.920;2023-04-25T03:04:13;9.60;70.40
29663;DHT22;16578;53.266;7.920;2023-04-25T03:06:39;9.60;70.40
29663;DHT22;16578;53.266;7.920;2023-04-25T03:09:04;9.50;70.60
29663;DHT22;16578;53.266;7.920;2023-04-25T03:11:30;9.50;70.70
29663;DHT22;16578;53.266;7.920;2023-04-25T03:13:55;9.50;70.90
29663;DHT22;16578;53.266;7.920;2023-04-25T03:16:22;9.50;71.10
29663;DHT22;16578;53.266;7.920;2023-04-25T03:18:47;9.50;71.10
29663;DHT22;16578;53.266;7.920;2023-04-25T03:21:13;9.50;71.10
29663;DHT22;16578;53.266;7.920;2023-04-25T03:23:38;9.50;71.30
29663;DHT22;16578;53.266;7.920;2023-04-25T03:26:04;9.60;71.50
29663;DHT22;16578;53.266;7.920;2023-04-25T03:28:29;9.60;71.40
29663;DHT22;16578;53.266;7.920;2023-04-25T03:30:55;9.50;71.00
29663;DHT22;16578;53.266;7.920;2023-04-25T03:33:21;9.50;70.50
29663;DHT22;16578;53.266;7.920;2023-04-25T03:35:46;9.50;70.30
29663;DHT22;16578;53.266;7.920;2023-04-25T03:38:12;9.50;70.40
29663;DHT22;16578;53.266;7.920;2023-04-25T03:40:38;9.50;70.60
29663;DHT22;16578;53.266;7.920;2023-04-25T03:43:03;9.50;70.50
29663;DHT22;16578;53.266;7.920;2023-04-25T03:45:29;9.50;70.60
29663;DHT22;16578;53.266;7.920;2023-04-25T03:47:54;9.50;70.50
29663;DHT22;16578;53.266;7.920;2023-04-25T03:50:20;9.40;70.40
29663;DHT22;16578;53.266;7.920;2023-04-25T03:52:45;9.40;70.40
29663;DHT22;16578;53.266;7.920;2023-04-25T03:55:11;9.40;70.40
29663;DHT22;16578;53.266;7.920;2023-04-25T03:57:36;9.40;70.40
29663;DHT22;16578;53.266;7.920;2023-04-25T04:00:03;9.40;70.50
29663;DHT22;16578;53.266;7.920;2023-04-25T04:02:29;9.40;70.70
29663;DHT22;16578;53.266;7.920;2023-04-25T04:04:54;9.40;70.60
29663;DHT22;16578;53.266;7.920;2023-04-25T04:07:22;9.40;70.70
29663;DHT22;16578;53.266;7.920;2023-04-25T04:09:47;9.40;71.00
29663;DHT22;16578;53.266;7.920;2023-04-25T04:12:13;9.40;71.20
29663;DHT22;16578;53.266;7.920;2023-04-25T04:14:38;9.40;71.10
29663;DHT22;16578;53.266;7.920;2023-04-25T04:17:04;9.40;71.20
29663;DHT22;16578;53.266;7.920;2023-04-25T04:19:31;9.40;71.10
29663;DHT22;16578;53.266;7.920;2023-04-25T04:21:56;9.40;71.00
29663;DHT22;16578;53.266;7.920;2023-04-25T04:24:22;9.40;71.20
29663;DHT22;16578;53.266;7.920;2023-04-25T04:26:47;9.40;71.20
29663;DHT22;16578;53.266;7.920;2023-04-25T04:29:13;9.40;71.20
29663;DHT22;16578;53.266;7.920;2023-04-25T04:31:49;9.40;71.30
29663;DHT22;16578;53.266;7.920;2023-04-25T04:34:14;9.40;71.20
29663;DHT22;16578;53.266;7.920;2023-04-25T04:36:41;9.30;71.10
29663;DHT22;16578;53.266;7.920;2023-04-25T04:39:07;9.30;71.20
29663;DHT22;16578;53.266;7.920;2023-04-25T04:41:34;9.30;71.50
29663;DHT22;16578;53.266;7.920;2023-04-25T04:44:00;9.30;71.50
29663;DHT22;16578;53.266;7.920;2023-04-25T04:46:27;9.20;71.60
29663;DHT22;16578;53.266;7.920;2023-04-25T04:48:53;9.20;71.70
29663;DHT22;16578;53.266;7.920;2023-04-25T04:51:19;9.20;71.80
29663;DHT22;16578;53.266;7.920;2023-04-25T04:53:46;9.20;71.80
29663;DHT22;16578;53.266;7.920;2023-04-25T04:56:11;9.10;71.90
29663;DHT22;16578;53.266;7.920;2023-04-25T04:58:37;9.10;72.10
29663;DHT22;16578;53.266;7.920;2023-04-25T05:01:02;9.10;72.30
29663;DHT22;16578;53.266;7.920;2023-04-25T05:03:28;9.10;72.40
29663;DHT22;16578;53.266;7.920;2023-04-25T05:05:54;9.10;72.60
29663;DHT22;16578;53.266;7.920;2023-04-25T05:08:19;9.10;72.60
29663;DHT22;16578;53.266;7.920;2023-04-25T05:10:45;9.10;72.60
29663;DHT22;16578;53.266;7.920;2023-04-25T05:13:10;9.10;72.80
29663;DHT22;16578;53.266;7.920;2023-04-25T05:15:36;9.10;73.00
29663;DHT22;16578;53.266;7.920;2023-04-25T05:18:01;9.10;73.20
29663;DHT22;16578;53.266;7.920;2023-04-25T05:20:27;9.20;73.50
29663;DHT22;16578;53.266;7.920;2023-04-25T05:22:53;9.20;73.50
29663;DHT22;16578;53.266;7.920;2023-04-25T05:25:18;9.30;73.60
29663;DHT22;16578;53.266;7.920;2023-04-25T05:27:44;9.40;73.50
29663;DHT22;16578;53.266;7.920;2023-04-25T05:30:09;9.40;73.60
29663;DHT22;16578;53.266;7.920;2023-04-25T05:32:35;9.50;73.60
29663;DHT22;16578;53.266;7.920;2023-04-25T05:35:01;9.50;73.30
29663;DHT22;16578;53.266;7.920;2023-04-25T05:37:28;9.60;73.10
29663;DHT22;16578;53.266;7.920;2023-04-25T05:39:55;9.70;73.00
29663;DHT22;16578;53.266;7.920;2023-04-25T05:42:21;9.80;73.00
29663;DHT22;16578;53.266;7.920;2023-04-25T05:44:46;9.80;72.80
29663;DHT22;16578;53.266;7.920;2023-04-25T05:47:12;9.80;72.40
29663;DHT22;16578;53.266;7.920;2023-04-25T05:49:37;9.90;72.30
29663;DHT22;16578;53.266;7.920;2023-04-25T05:52:03;9.90;72.00
29663;DHT22;16578;53.266;7.920;2023-04-25T05:54:29;10.00;72.10
29663;DHT22;16578;53.266;7.920;2023-04-25T05:56:56;10.00;72.00
29663;DHT22;16578;53.266;7.920;2023-04-25T05:59:22;10.10;71.30
29663;DHT22;16578;53.266;7.920;2023-04-25T06:01:47;10.10;71.10
29663;DHT22;16578;53.266;7.920;2023-04-25T06:04:13;10.10;70.90
29663;DHT22;16578;53.266;7.920;2023-04-25T06:06:38;10.20;70.60
29663;DHT22;16578;53.266;7.920;2023-04-25T06:09:04;10.20;70.30
29663;DHT22;16578;53.266;7.920;2023-04-25T06:11:29;10.20;70.40
29663;DHT22;16578;53.266;7.920;2023-04-25T06:13:55;10.20;70.50
29663;DHT22;16578;53.266;7.920;2023-04-25T06:16:21;10.30;70.60
29663;DHT22;16578;53.266;7.920;2023-04-25T06:18:46;10.30;70.30
29663;DHT22;16578;53.266;7.920;2023-04-25T06:21:12;10.30;70.20
29663;DHT22;16578;53.266;7.920;2023-04-25T06:23:37;10.40;70.20
29663;DHT22;16578;53.266;7.920;2023-04-25T06:26:03;10.40;70.10
29663;DHT22;16578;53.266;7.920;2023-04-25T06:28:29;10.40;70.10
29663;DHT22;16578;53.266;7.920;2023-04-25T06:30:54;10.50;69.90
29663;DHT22;16578;53.266;7.920;2023-04-25T06:33:20;10.50;69.80
29663;DHT22;16578;53.266;7.920;2023-04-25T06:35:46;10.60;69.70
29663;DHT22;16578;53.266;7.920;2023-04-25T06:38:12;10.60;69.70
29663;DHT22;16578;53.266;7.920;2023-04-25T06:40:38;10.70;69.60
29663;DHT22;16578;53.266;7.920;2023-04-25T06:43:03;10.70;69.70
29663;DHT22;16578;53.266;7.920;2023-04-25T06:45:29;10.80;69.90
29663;DHT22;16578;53.266;7.920;2023-04-25T06:47:54;10.90;69.90
29663;DHT22;16578;53.266;7.920;2023-04-25T06:50:20;10.90;69.50
29663;DHT22;16578;53.266;7.920;2023-04-25T06:52:46;11.00;69.30
29663;DHT22;16578;53.266;7.920;2023-04-25T06:55:11;11.00;69.40
29663;DHT22;16578;53.266;7.920;2023-04-25T06:57:36;11.10;69.50
29663;DHT22;16578;53.266;7.920;2023-04-25T07:00:03;11.20;69.50
29663;DHT22;16578;53.266;7.920;2023-04-25T07:02:30;11.30;70.00
29663;DHT22;16578;53.266;7.920;2023-04-25T07:04:56;11.30;68.60
29663;DHT22;16578;53.266;7.920;2023-04-25T07:07:25;11.40;68.10
29663;DHT22;16578;53.266;7.920;2023-04-25T07:09:50;11.30;67.20
29663;DHT22;16578;53.266;7.920;2023-04-25T07:12:16;11.40;67.30
29663;DHT22;16578;53.266;7.920;2023-04-25T07:14:41;11.40;66.10
29663;DHT22;16578;53.266;7.920;2023-04-25T07:17:07;11.30;66.00
29663;DHT22;16578;53.266;7.920;2023-04-25T07:19:33;11.30;65.80
29663;DHT22;16578;53.266;7.920;2023-04-25T07:21:58;11.30;65.50
29663;DHT22;16578;53.266;7.920;2023-04-25T07:24:24;11.20;64.50
29663;DHT22;16578;53.266;7.920;2023-04-25T07:26:50;11.20;64.40
29663;DHT22;16578;53.266;7.920;2023-04-25T07:29:15;11.10;64.70
29663;DHT22;16578;53.266;7.920;2023-04-25T07:31:41;11.00;64.80
29663;DHT22;16578;53.266;7.920;2023-04-25T07:34:07;10.80;65.10
29663;DHT22;16578;53.266;7.920;2023-04-25T07:36:32;10.70;65.30
29663;DHT22;16578;53.266;7.920;2023-04-25T07:38:58;10.60;65.50
29663;DHT22;16578;53.266;7.920;2023-04-25T07:41:24;10.50;65.90
29663;DHT22;16578;53.266;7.920;2023-04-25T07:43:49;10.50;66.40
29663;DHT22;16578;53.266;7.920;2023-04-25T07:46:15;10.40;66.50
29663;DHT22;16578;53.266;7.920;2023-04-25T07:48:40;10.40;66.70
29663;DHT22;16578;53.266;7.920;2023-04-25T07:51:06;10.40;67.00
29663;DHT22;16578;53.266;7.920;2023-04-25T07:53:32;10.40;67.60
29663;DHT22;16578;53.266;7.920;2023-04-25T07:56:00;10.40;67.90
29663;DHT22;16578;53.266;7.920;2023-04-25T07:58:25;10.50;68.20
29663;DHT22;16578;53.266;7.920;2023-04-25T08:00:51;10.60;68.30
29663;DHT22;16578;53.266;7.920;2023-04-25T08:03:16;10.70;68.20
29663;DHT22;16578;53.266;7.920;2023-04-25T08:05:42;10.80;67.80
29663;DHT22;16578;53.266;7.920;2023-04-25T08:08:08;10.90;68.50
29663;DHT22;16578;53.266;7.920;2023-04-25T08:10:33;10.90;67.30
29663;DHT22;16578;53.266;7.920;2023-04-25T08:12:59;11.00;67.10
29663;DHT22;16578;53.266;7.920;2023-04-25T08:15:25;11.00;66.70
29663;DHT22;16578;53.266;7.920;2023-04-25T08:17:51;11.00;66.30
29663;DHT22;16578;53.266;7.920;2023-04-25T08:20:17;11.00;66.20
29663;DHT22;16578;53.266;7.920;2023-04-25T08:22:43;11.00;65.90
29663;DHT22;16578;53.266;7.920;2023-04-25T08:25:08;10.90;66.00
29663;DHT22;16578;53.266;7.920;2023-04-25T08:27:34;10.80;66.10
29663;DHT22;16578;53.266;7.920;2023-04-25T08:30:00;10.70;66.40
29663;DHT22;16578;53.266;7.920;2023-04-25T08:32:26;10.60;66.70
29663;DHT22;16578;53.266;7.920;2023-04-25T08:34:51;10.50;67.00
29663;DHT22;16578;53.266;7.920;2023-04-25T08:37:19;10.50;67.60
29663;DHT22;16578;53.266;7.920;2023-04-25T08:39:45;10.60;68.30
29663;DHT22;16578;53.266;7.920;2023-04-25T08:42:14;10.60;69.20
29663;DHT22;16578;53.266;7.920;2023-04-25T08:44:40;10.70;69.10
29663;DHT22;16578;53.266;7.920;2023-04-25T08:47:06;10.80;68.60
29663;DHT22;16578;53.266;7.920;2023-04-25T08:49:32;10.80;68.40
29663;DHT22;16578;53.266;7.920;2023-04-25T08:52:03;10.90;68.30
29663;DHT22;16578;53.266;7.920;2023-04-25T08:54:31;10.90;67.90
29663;DHT22;16578;53.266;7.920;2023-04-25T08:57:01;11.00;68.00
29663;DHT22;16578;53.266;7.920;2023-04-25T08:59:27;11.10;68.60
29663;DHT22;16578;53.266;7.920;2023-04-25T09:01:53;11.20;68.50
29663;DHT22;16578;53.266;7.920;2023-04-25T09:04:19;11.30;67.90
29663;DHT22;16578;53.266;7.920;2023-04-25T09:06:46;11.40;66.30
29663;DHT22;16578;53.266;7.920;2023-04-25T09:09:11;11.40;66.10
29663;DHT22;16578;53.266;7.920;2023-04-25T09:11:37;11.30;65.70
29663;DHT22;16578;53.266;7.920;2023-04-25T09:14:16;11.20;65.50
29663;DHT22;16578;53.266;7.920;2023-04-25T09:17:11;11.10;65.90
29663;DHT22;16578;53.266;7.920;2023-04-25T09:19:37;10.90;66.30
29663;DHT22;16578;53.266;7.920;2023-04-25T09:22:06;10.70;66.40
29663;DHT22;16578;53.266;7.920;2023-04-25T09:24:43;10.50;66.80
29663;DHT22;16578;53.266;7.920;2023-04-25T09:27:10;10.40;67.50
29663;DHT22;16578;53.266;7.920;2023-04-25T09:29:39;10.20;67.90
29663;DHT22;16578;53.266;7.920;2023-04-25T09:32:11;10.10;68.50
29663;DHT22;16578;53.266;7.920;2023-04-25T09:34:42;10.10;69.30
29663;DHT22;16578;53.266;7.920;2023-04-25T09:37:09;10.10;69.90
29663;DHT22;16578;53.266;7.920;2023-04-25T09:39:37;10.10;70.20
29663;DHT22;16578;53.266;7.920;2023-04-25T09:42:03;10.20;70.20
29663;DHT22;16578;53.266;7.920;2023-04-25T09:44:29;10.20;70.20
29663;DHT22;16578;53.266;7.920;2023-04-25T09:46:54;10.30;70.20
29663;DHT22;16578;53.266;7.920;2023-04-25T09:49:20;10.40;70.00
29663;DHT22;16578;53.266;7.920;2023-04-25T09:51:59;10.50;70.10
29663;DHT22;16578;53.266;7.920;2023-04-25T09:54:25;10.50;70.00
29663;DHT22;16578;53.266;7.920;2023-04-25T09:56:54;10.50;69.90
29663;DHT22;16578;53.266;7.920;2023-04-25T09:59:22;10.60;69.90
29663;DHT22;16578;53.266;7.920;2023-04-25T10:01:49;10.70;69.90
29663;DHT22;16578;53.266;7.920;2023-04-25T10:04:25;10.80;69.90
29663;DHT22;16578;53.266;7.920;2023-04-25T10:06:53;10.90;70.20
29663;DHT22;16578;53.266;7.920;2023-04-25T10:09:20;11.00;70.30
29663;DHT22;16578;53.266;7.920;2023-04-25T10:11:47;11.20;70.20
29663;DHT22;16578;53.266;7.920;2023-04-25T10:14:16;11.30;69.80
29663;DHT22;16578;53.266;7.920;2023-04-25T10:16:42;11.40;69.20
29663;DHT22;16578;53.266;7.920;2023-04-25T10:19:09;11.50;68.20
29663;DHT22;16578;53.266;7.920;2023-04-25T10:21:40;11.50;66.40
29663;DHT22;16578;53.266;7.920;2023-04-25T10:24:06;11.50;66.20
29663;DHT22;16578;53.266;7.920;2023-04-25T10:26:32;11.50;66.20
29663;DHT22;16578;53.266;7.920;2023-04-25T10:28:59;11.60;65.90
29663;DHT22;16578;53.266;7.920;2023-04-25T10:31:26;11.60;64.70
29663;DHT22;16578;53.266;7.920;2023-04-25T10:33:52;11.60;63.80
29663;DHT22;16578;53.266;7.920;2023-04-25T10:36:20;11.60;64.00
29663;DHT22;16578;53.266;7.920;2023-04-25T10:38:49;11.70;64.90
29663;DHT22;16578;53.266;7.920;2023-04-25T10:41:18;11.80;64.60
29663;DHT22;16578;53.266;7.920;2023-04-25T10:43:49;11.80;64.00
29663;DHT22;16578;53.266;7.920;2023-04-25T10:46:28;12.00;64.40
29663;DHT22;16578;53.266;7.920;2023-04-25T10:48:58;12.10;63.60
29663;DHT22;16578;53.266;7.920;2023-04-25T10:51:27;12.20;63.90
29663;DHT22;16578;53.266;7.920;2023-04-25T10:54:02;12.30;63.50
29663;DHT22;16578;53.266;7.920;2023-04-25T10:56:37;12.40;62.80
29663;DHT22;16578;53.266;7.920;2023-04-25T10:59:13;12.50;63.20
29663;DHT22;16578;53.266;7.920;2023-04-25T11:01:41;12.70;62.60
29663;DHT22;16578;53.266;7.920;2023-04-25T11:04:22;12.70;61.70
29663;DHT22;16578;53.266;7.920;2023-04-25T11:09:24;12.80;61.90
29663;DHT22;16578;53.266;7.920;2023-04-25T11:11:54;12.70;61.70
29663;DHT22;16578;53.266;7.920;2023-04-25T11:14:20;12.70;60.80
29663;DHT22;16578;53.266;7.920;2023-04-25T11:16:46;12.60;60.70
29663;DHT22;16578;53.266;7.920;2023-04-25T11:19:11;12.60;60.80
29663;DHT22;16578;53.266;7.920;2023-04-25T11:21:37;12.60;61.40
29663;DHT22;16578;53.266;7.920;2023-04-25T11:24:02;12.60;61.10
29663;DHT22;16578;53.266;7.920;2023-04-25T11:26:28;12.60;60.10
29663;DHT22;16578;53.266;7.920;2023-04-25T11:28:59;12.60;59.90
29663;DHT22;16578;53.266;7.920;2023-04-25T11:31:25;12.60;60.10
29663;DHT22;16578;53.266;7.920;2023-04-25T11:33:53;12.60;59.80
29663;DHT22;16578;53.266;7.920;2023-04-25T11:36:20;12.60;58.80
29663;DHT22;16578;53.266;7.920;2023-04-25T11:38:45;12.60;58.50
29663;DHT22;16578;53.266;7.920;2023-04-25T11:41:11;12.60;58.90
29663;DHT22;16578;53.266;7.920;2023-04-25T11:43:37;12.70;59.10
29663;DHT22;16578;53.266;7.920;2023-04-25T11:46:06;12.70;57.90
29663;DHT22;16578;53.266;7.920;2023-04-25T11:48:43;12.70;57.40
29663;DHT22;16578;53.266;7.920;2023-04-25T11:51:09;12.70;57.80
29663;DHT22;16578;53.266;7.920;2023-04-25T11:53:35;12.70;58.20
29663;DHT22;16578;53.266;7.920;2023-04-25T11:56:01;12.70;56.70
29663;DHT22;16578;53.266;7.920;2023-04-25T11:58:27;12.70;57.10
29663;DHT22;16578;53.266;7.920;2023-04-25T12:00:53;12.70;56.90
29663;DHT22;16578;53.266;7.920;2023-04-25T12:03:19;12.70;56.80
29663;DHT22;16578;53.266;7.920;2023-04-25T12:05:46;12.60;57.00
29663;DHT22;16578;53.266;7.920;2023-04-25T12:08:12;12.60;57.30
29663;DHT22;16578;53.266;7.920;2023-04-25T12:10:39;12.60;57.50
29663;DHT22;16578;53.266;7.920;2023-04-25T12:13:23;12.60;57.10
29663;DHT22;16578;53.266;7.920;2023-04-25T12:15:49;12.60;56.70
29663;DHT22;16578;53.266;7.920;2023-04-25T12:18:18;12.50;57.60
29663;DHT22;16578;53.266;7.920;2023-04-25T12:20:44;12.50;57.60
29663;DHT22;16578;53.266;7.920;2023-04-25T12:23:09;12.60;57.30
29663;DHT22;16578;53.266;7.920;2023-04-25T12:25:44;12.60;57.10
29663;DHT22;16578;53.266;7.920;2023-04-25T12:28:16;12.60;56.40
29663;DHT22;16578;53.266;7.920;2023-04-25T12:31:01;12.60;56.80
29663;DHT22;16578;53.266;7.920;2023-04-25T12:33:33;12.60;55.20
29663;DHT22;16578;53.266;7.920;2023-04-25T12:35:59;12.60;55.30
29663;DHT22;16578;53.266;7.920;2023-04-25T12:38:30;12.60;54.70
29663;DHT22;16578;53.266;7.920;2023-04-25T12:40:56;12.60;55.30
29663;DHT22;16578;53.266;7.920;2023-04-25T12:43:22;12.50;56.10
29663;DHT22;16578;53.266;7.920;2023-04-25T12:45:49;12.50;56.20
29663;DHT22;16578;53.266;7.920;2023-04-25T12:48:16;12.60;57.10
29663;DHT22;16578;53.266;7.920;2023-04-25T12:50:42;12.70;57.50
29663;DHT22;16578;53.266;7.920;2023-04-25T12:53:07;12.70;57.50
29663;DHT22;16578;53.266;7.920;2023-04-25T12:55:33;12.80;57.20
29663;DHT22;16578;53.266;7.920;2023-04-25T12:57:59;12.90;57.20
29663;DHT22;16578;53.266;7.920;2023-04-25T13:00:24;13.00;56.50
29663;DHT22;16578;53.266;7.920;2023-04-25T13:02:50;13.10;56.60
29663;DHT22;16578;53.266;7.920;2023-04-25T13:05:15;13.10;56.50
29663;DHT22;16578;53.266;7.920;2023-04-25T13:07:41;13.20;56.40
29663;DHT22;16578;53.266;7.920;2023-04-25T13:10:07;13.20;56.00
29663;DHT22;16578;53.266;7.920;2023-04-25T13:12:33;13.30;56.10
29663;DHT22;16578;53.266;7.920;2023-04-25T13:14:58;13.30;56.20
29663;DHT22;16578;53.266;7.920;2023-04-25T13:17:24;13.30;56.60
29663;DHT22;16578;53.266;7.920;2023-04-25T13:19:49;13.30;57.20
29663;DHT22;16578;53.266;7.920;2023-04-25T13:22:15;13.40;57.40
29663;DHT22;16578;53.266;7.920;2023-04-25T13:24:42;13.50;56.40
29663;DHT22;16578;53.266;7.920;2023-04-25T13:27:08;13.50;56.20
29663;DHT22;16578;53.266;7.920;2023-04-25T13:29:34;13.50;55.80
29663;DHT22;16578;53.266;7.920;2023-04-25T13:32:01;13.40;55.40
29663;DHT22;16578;53.266;7.920;2023-04-25T13:34:28;13.40;55.70
29663;DHT22;16578;53.266;7.920;2023-04-25T13:36:53;13.40;55.80
29663;DHT22;16578;53.266;7.920;2023-04-25T13:39:19;13.30;55.90
29663;DHT22;16578;53.266;7.920;2023-04-25T13:41:45;13.30;55.90
29663;DHT22;16578;53.266;7.920;2023-04-25T13:44:10;13.30;56.10
29663;DHT22;16578;53.266;7.920;2023-04-25T13:46:36;13.30;56.50
29663;DHT22;16578;53.266;7.920;2023-04-25T13:49:05;13.30;56.90
29663;DHT22;16578;53.266;7.920;2023-04-25T13:51:31;13.30;57.10
29663;DHT22;16578;53.266;7.920;2023-04-25T13:53:57;13.40;56.60
29663;DHT22;16578;53.266;7.920;2023-04-25T13:56:22;13.40;56.80
29663;DHT22;16578;53.266;7.920;2023-04-25T13:58:50;13.50;56.20
29663;DHT22;16578;53.266;7.920;2023-04-25T14:01:15;13.50;56.10
29663;DHT22;16578;53.266;7.920;2023-04-25T14:03:41;13.50;56.00
29663;DHT22;16578;53.266;7.920;2023-04-25T14:06:07;13.60;55.50
29663;DHT22;16578;53.266;7.920;2023-04-25T14:08:34;13.60;54.90
29663;DHT22;16578;53.266;7.920;2023-04-25T14:10:59;13.60;55.40
29663;DHT22;16578;53.266;7.920;2023-04-25T14:13:26;13.60;55.20
29663;DHT22;16578;53.266;7.920;2023-04-25T14:15:51;13.60;54.40
29663;DHT22;16578;53.266;7.920;2023-04-25T14:18:17;13.60;54.80
29663;DHT22;16578;53.266;7.920;2023-04-25T14:20:43;13.60;55.00
29663;DHT22;16578;53.266;7.920;2023-04-25T14:23:08;13.50;54.10
29663;DHT22;16578;53.266;7.920;2023-04-25T14:25:34;13.50;53.20
29663;DHT22;16578;53.266;7.920;2023-04-25T14:28:01;13.40;53.30
29663;DHT22;16578;53.266;7.920;2023-04-25T14:30:27;13.30;53.80
29663;DHT22;16578;53.266;7.920;2023-04-25T14:32:52;13.20;53.60
29663;DHT22;16578;53.266;7.920;2023-04-25T14:35:18;13.20;54.10
29663;DHT22;16578;53.266;7.920;2023-04-25T14:37:43;13.10;53.80
29663;DHT22;16578;53.266;7.920;2023-04-25T14:40:09;13.00;54.00
29663;DHT22;16578;53.266;7.920;2023-04-25T14:42:36;13.00;54.60
29663;DHT22;16578;53.266;7.920;2023-04-25T14:45:03;13.00;55.10
29663;DHT22;16578;53.266;7.920;2023-04-25T14:47:29;13.10;55.40
29663;DHT22;16578;53.266;7.920;2023-04-25T14:49:55;13.10;55.30
29663;DHT22;16578;53.266;7.920;2023-04-25T14:52:21;13.20;54.90
29663;DHT22;16578;53.266;7.920;2023-04-25T14:54:47;13.20;54.90
29663;DHT22;16578;53.266;7.920;2023-04-25T14:57:13;13.30;54.60
29663;DHT22;16578;53.266;7.920;2023-04-25T14:59:38;13.30;54.00
29663;DHT22;16578;53.266;7.920;2023-04-25T15:02:04;13.30;53.90
29663;DHT22;16578;53.266;7.920;2023-04-25T15:04:30;13.30;53.90
29663;DHT22;16578;53.266;7.920;2023-04-25T15:06:55;13.30;53.20
29663;DHT22;16578;53.266;7.920;2023-04-25T15:09:21;13.30;53.30
29663;DHT22;16578;53.266;7.920;2023-04-25T15:11:48;13.30;53.60
29663;DHT22;16578;53.266;7.920;2023-04-25T15:14:14;13.30;53.60
29663;DHT22;16578;53.266;7.920;2023-04-25T15:16:39;13.40;53.50
29663;DHT22;16578;53.266;7.920;2023-04-25T15:19:05;13.40;53.60
29663;DHT22;16578;53.266;7.920;2023-04-25T15:21:31;13.40;53.10
29663;DHT22;16578;53.266;7.920;2023-04-25T15:23:57;13.40;53.00
29663;DHT22;16578;53.266;7.920;2023-04-25T15:26:22;13.30;53.30
29663;DHT22;16578;53.266;7.920;2023-04-25T15:28:48;13.30;54.10
29663;DHT22;16578;53.266;7.920;2023-04-25T15:31:14;13.20;55.00
29663;DHT22;16578;53.266;7.920;2023-04-25T15:33:39;13.10;55.70